Time;durP1;ratioP1;P1;durP2;ratioP2;P2;SDS_P1;SDS_P2;PMS_P1;PMS_P2;Temp;Humidity;BMP_temperature;BMP_pressure;BME280_temperature;BME280_humidity;BME280_pressure;Samples;Min_cycle;Max_cycle;Signal;HPM_P1;HPM_P2
2022/04/08 00:08:56;;;;;;;1.75;0.40;;;6.50;99.90;;;;;;6749591;88;20165;-81
2022/04/08 00:18:57;;;;;;;2.17;0.43;;;6.40;99.90;;;;;;6749308;88;20218;-82
2022/04/08 00:28:57;;;;;;;1.73;0.65;;;6.40;99.90;;;;;;6751219;88;20715;-81
2022/04/08 00:38:58;;;;;;;2.65;0.70;;;6.40;99.90;;;;;;6751830;88;20200;-82
2022/04/08 00:48:58;;;;;;;5.75;1.30;;;6.50;99.90;;;;;;6751851;88;20164;-82
2022/04/08 00:58:59;;;;;;;3.97;1.40;;;6.50;99.90;;;;;;6751882;88;20653;-81
2022/04/08 01:09:00;;;;;;;4.00;1.33;;;6.60;99.90;;;;;;6751503;88;20199;-81
2022/04/08 01:19:01;;;;;;;4.53;1.45;;;6.60;99.90;;;;;;6731646;88;20492;-81
2022/04/08 01:29:01;;;;;;;5.72;1.48;;;6.60;99.90;;;;;;6750895;88;20188;-81
2022/04/08 01:39:02;;;;;;;5.45;1.30;;;6.60;99.90;;;;;;6714361;88;20174;-81
2022/04/08 01:49:02;;;;;;;4.53;1.20;;;6.70;99.90;;;;;;6714387;88;20254;-81
2022/04/08 02:09:11;;;;;;;5.18;1.42;;;6.70;99.90;;;;;;6728637;88;20533;-78
2022/04/08 02:19:12;;;;;;;4.73;1.50;;;6.80;99.90;;;;;;6744472;88;20321;-78
2022/04/08 02:29:13;;;;;;;6.40;1.70;;;6.90;99.90;;;;;;6747756;88;20240;-79
2022/04/08 02:39:14;;;;;;;5.47;1.85;;;6.80;99.90;;;;;;6747852;88;20719;-79
2022/04/08 02:49:15;;;;;;;4.40;1.70;;;6.80;99.90;;;;;;6747769;88;20195;-79
2022/04/08 02:59:15;;;;;;;4.00;1.90;;;6.80;99.90;;;;;;6730800;88;20206;-79
2022/04/08 03:09:16;;;;;;;3.78;2.10;;;6.80;99.90;;;;;;6729997;88;20792;-78
2022/04/08 03:19:18;;;;;;;6.10;2.33;;;6.60;99.90;;;;;;6730024;88;20216;-79
2022/04/08 03:29:18;;;;;;;3.78;2.33;;;6.50;99.90;;;;;;6730315;88;20205;-78
2022/04/08 03:39:20;;;;;;;6.10;2.78;;;6.40;99.90;;;;;;6731171;88;20230;-79
2022/04/08 03:49:21;;;;;;;5.20;2.30;;;6.20;99.90;;;;;;6726283;88;20279;-78
2022/04/08 03:59:22;;;;;;;6.68;2.45;;;6.30;99.90;;;;;;6726710;88;20351;-79
2022/04/08 04:09:23;;;;;;;5.40;2.20;;;6.30;99.90;;;;;;6731935;88;20194;-80
2022/04/08 04:19:23;;;;;;;5.03;2.05;;;6.20;99.90;;;;;;6731770;88;20201;-79
2022/04/08 04:29:24;;;;;;;6.40;2.10;;;6.10;99.90;;;;;;6727140;88;20815;-79
2022/04/08 04:39:24;;;;;;;5.80;2.20;;;6.00;99.90;;;;;;6732226;88;20198;-79
2022/04/08 04:49:25;;;;;;;3.55;2.10;;;6.20;99.90;;;;;;6732007;88;20189;-80
2022/04/08 04:59:25;;;;;;;3.47;2.05;;;6.10;99.90;;;;;;6728690;88;20184;-79
2022/04/08 05:09:26;;;;;;;3.90;1.73;;;6.10;99.90;;;;;;6730561;88;20675;-79
2022/04/08 05:19:27;;;;;;;4.35;2.08;;;6.00;99.90;;;;;;6729930;88;20233;-80
2022/04/08 05:29:27;;;;;;;4.12;1.70;;;5.90;99.90;;;;;;6729573;88;21112;-80
2022/04/08 05:39:28;;;;;;;4.18;1.85;;;6.10;99.90;;;;;;6730478;88;20255;-80
2022/04/08 05:49:28;;;;;;;4.00;1.90;;;6.20;99.90;;;;;;6729003;88;20860;-79
2022/04/08 05:59:29;;;;;;;4.87;1.73;;;6.30;99.90;;;;;;6730430;88;20270;-79
2022/04/08 06:09:30;;;;;;;2.72;1.70;;;6.50;99.90;;;;;;6726550;88;20208;-80
2022/04/08 06:30:37;;;;;;;2.78;1.80;;;6.80;99.90;;;;;;6757350;88;20196;-82
2022/04/08 06:40:41;;;;;;;3.40;1.90;;;6.90;99.90;;;;;;6754263;88;20213;-80
2022/04/08 06:50:41;;;;;;;2.95;1.80;;;7.10;99.90;;;;;;6743628;88;20207;-81
2022/04/08 07:00:42;;;;;;;5.05;1.70;;;7.10;99.90;;;;;;6743717;88;20709;-79
2022/04/08 07:10:42;;;;;;;3.62;1.55;;;7.20;99.90;;;;;;6739993;88;20653;-79
2022/04/08 07:20:43;;;;;;;4.70;1.73;;;7.30;99.90;;;;;;6739286;88;20234;-79
2022/04/08 07:30:43;;;;;;;3.05;1.60;;;7.50;99.90;;;;;;6722419;88;20197;-79
2022/04/08 07:40:44;;;;;;;3.87;1.37;;;7.40;99.90;;;;;;6726668;88;21007;-80
2022/04/08 07:50:44;;;;;;;3.92;1.85;;;7.50;99.90;;;;;;6729546;88;20486;-80
2022/04/08 08:00:45;;;;;;;3.60;1.45;;;7.50;99.90;;;;;;6730365;88;20273;-80
2022/04/08 08:10:46;;;;;;;4.35;1.80;;;7.50;99.90;;;;;;6727885;88;20709;-80
2022/04/08 08:20:47;;;;;;;2.87;1.52;;;7.50;99.90;;;;;;6727096;88;20679;-79
2022/04/08 08:30:48;;;;;;;3.37;1.60;;;7.40;99.90;;;;;;6725886;88;20193;-78
2022/04/08 08:40:50;;;;;;;3.70;1.42;;;7.40;99.90;;;;;;6715705;88;20181;-78
2022/04/08 08:50:52;;;;;;;4.72;1.65;;;7.60;99.90;;;;;;6725719;88;20185;-79
2022/04/08 09:00:53;;;;;;;4.03;1.90;;;7.90;99.90;;;;;;6728528;88;20327;-78
2022/04/08 09:10:53;;;;;;;5.25;1.80;;;8.10;99.90;;;;;;6728350;88;20756;-79
2022/04/08 09:20:54;;;;;;;7.10;1.60;;;8.00;99.90;;;;;;6727586;88;20189;-80
2022/04/08 09:30:57;;;;;;;7.05;2.00;;;8.20;99.90;;;;;;6726645;88;20620;-79
2022/04/08 09:41:00;;;;;;;4.85;1.83;;;8.50;99.90;;;;;;6726093;88;20193;-79
2022/04/08 09:51:02;;;;;;;6.32;2.00;;;8.40;99.90;;;;;;6727562;88;20193;-79
2022/04/08 10:01:03;;;;;;;6.15;1.90;;;8.50;99.90;;;;;;6728152;88;20194;-79
2022/04/08 10:11:14;;;;;;;7.50;1.80;;;8.60;99.90;;;;;;6731124;88;20255;-79
2022/04/08 10:21:16;;;;;;;7.50;1.95;;;8.60;99.90;;;;;;6727435;88;20225;-78
2022/04/08 10:31:26;;;;;;;5.22;1.70;;;8.70;99.90;;;;;;6726969;88;20259;-79
2022/04/08 10:41:27;;;;;;;5.93;1.98;;;8.70;99.90;;;;;;6726067;88;20587;-78
2022/04/08 10:51:30;;;;;;;8.35;1.90;;;8.50;99.90;;;;;;6725723;88;20281;-80
2022/04/08 11:01:34;;;;;;;9.10;2.10;;;8.40;99.90;;;;;;6726395;88;20184;-79
2022/04/08 11:11:37;;;;;;;3.42;1.20;;;8.50;99.90;;;;;;6734057;88;20234;-79
2022/04/08 11:21:40;;;;;;;3.15;1.00;;;8.20;99.90;;;;;;6744392;88;20189;-79
2022/04/08 11:31:42;;;;;;;1.27;0.50;;;8.30;99.90;;;;;;6744343;88;20644;-79
2022/04/08 11:41:49;;;;;;;3.05;0.52;;;8.00;99.90;;;;;;6743096;88;20672;-78
2022/04/08 11:52:00;;;;;;;1.35;0.57;;;7.60;99.90;;;;;;6743192;88;20645;-79
2022/04/08 12:02:01;;;;;;;2.15;0.40;;;7.20;99.90;;;;;;6740205;88;20223;-79
2022/04/08 12:12:02;;;;;;;4.22;0.80;;;7.20;99.90;;;;;;6743034;88;20271;-80
2022/04/08 12:22:09;;;;;;;2.47;0.70;;;7.20;99.90;;;;;;6743677;88;20192;-77
2022/04/08 12:32:15;;;;;;;4.97;0.80;;;7.10;99.90;;;;;;6745471;88;20764;-79
2022/04/08 12:42:36;;;;;;;2.17;0.77;;;7.10;99.90;;;;;;6779608;77;20184;-81
2022/04/08 12:52:37;;;;;;;3.40;0.80;;;7.30;99.90;;;;;;6787467;88;20762;-81
2022/04/08 13:02:42;;;;;;;2.70;0.77;;;7.20;99.90;;;;;;6786645;88;20191;-79
2022/04/08 13:12:42;;;;;;;3.22;1.10;;;7.00;99.90;;;;;;6766928;88;20203;-81
2022/04/08 13:22:43;;;;;;;3.42;0.88;;;6.80;99.90;;;;;;6766924;88;20934;-80
2022/04/08 13:32:44;;;;;;;3.08;0.50;;;6.70;99.90;;;;;;6766666;88;20156;-80
2022/04/08 13:42:44;;;;;;;2.62;0.60;;;6.60;99.90;;;;;;6781755;88;20181;-79
2022/04/08 13:52:45;;;;;;;1.80;0.60;;;6.50;99.90;;;;;;6766570;88;20173;-81
2022/04/08 14:02:46;;;;;;;3.25;0.70;;;6.10;99.90;;;;;;6766718;88;20317;-80
2022/04/08 14:12:47;;;;;;;2.10;0.70;;;6.10;99.90;;;;;;6714957;88;20199;-79
2022/04/08 14:22:47;;;;;;;3.17;0.90;;;6.10;99.90;;;;;;6728177;88;21274;-80
2022/04/08 14:32:48;;;;;;;3.30;0.75;;;5.90;99.90;;;;;;6731635;88;20271;-80
2022/04/08 14:42:49;;;;;;;4.33;0.80;;;6.00;99.90;;;;;;6773691;87;20254;-80
2022/04/08 14:52:51;;;;;;;2.60;0.90;;;5.90;99.90;;;;;;6765667;88;20617;-81
2022/04/08 15:02:52;;;;;;;3.20;0.80;;;6.20;99.90;;;;;;6765685;88;20454;-80
2022/04/08 15:12:55;;;;;;;2.58;0.80;;;6.20;99.90;;;;;;6765547;88;20207;-79
2022/04/08 15:22:56;;;;;;;3.60;0.95;;;5.90;99.90;;;;;;6731334;88;20142;-79
2022/04/08 15:32:56;;;;;;;3.08;0.80;;;6.00;99.90;;;;;;6713950;88;20168;-79
2022/04/08 15:42:57;;;;;;;5.18;1.02;;;5.70;99.90;;;;;;6726574;88;20299;-81
2022/04/08 15:52:58;;;;;;;3.22;0.90;;;5.50;99.90;;;;;;6742240;88;20301;-83
2022/04/08 16:02:58;;;;;;;4.60;1.30;;;5.30;99.90;;;;;;6760417;88;20890;-81
2022/04/08 16:12:59;;;;;;;3.95;1.10;;;5.20;99.90;;;;;;6779778;87;20883;-81
2022/04/08 16:23:00;;;;;;;2.87;1.20;;;5.40;99.90;;;;;;6780319;87;20182;-80
2022/04/08 16:33:00;;;;;;;2.17;1.15;;;5.40;99.90;;;;;;6764278;88;20161;-82
2022/04/08 16:43:01;;;;;;;2.70;1.40;;;5.40;99.90;;;;;;6762554;88;20886;-81
2022/04/08 16:53:04;;;;;;;4.82;1.50;;;5.50;99.90;;;;;;6764407;88;20167;-82
2022/04/08 17:03:06;;;;;;;3.92;1.25;;;5.50;99.90;;;;;;6763828;88;20273;-79
2022/04/08 17:13:06;;;;;;;4.18;1.80;;;5.40;99.90;;;;;;6731482;88;20225;-81
2022/04/08 17:23:07;;;;;;;4.90;1.95;;;5.40;99.90;;;;;;6732343;88;20159;-78
2022/04/08 17:33:07;;;;;;;6.72;3.08;;;5.30;99.90;;;;;;6732250;88;20245;-79
2022/04/08 18:04:16;;;;;;;3.37;1.95;;;5.10;99.90;;;;;;6682028;88;20152;-86
2022/04/08 18:14:18;;;;;;;3.40;2.00;;;5.10;99.90;;;;;;6731686;88;20225;-86
2022/04/08 18:35:20;;;;;;;5.40;2.30;;;5.00;99.90;;;;;;6767837;88;20171;-86
2022/04/08 18:56:23;;;;;;;4.82;2.50;;;5.10;99.90;;;;;;6751313;88;20579;-79
2022/04/08 19:06:24;;;;;;;8.75;3.50;;;5.00;99.90;;;;;;6750633;88;20856;-77
2022/04/08 19:16:25;;;;;;;5.05;3.00;;;4.90;99.90;;;;;;6749297;88;20170;-80
2022/04/08 19:26:26;;;;;;;7.35;3.72;;;4.80;99.90;;;;;;6746022;88;20183;-81
2022/04/08 19:36:27;;;;;;;5.28;3.40;;;5.00;99.90;;;;;;6746262;88;20202;-80
2022/04/08 19:46:28;;;;;;;7.20;4.05;;;5.00;99.90;;;;;;6729856;88;20223;-81
2022/04/08 19:56:29;;;;;;;8.95;3.75;;;4.70;99.90;;;;;;6741371;88;21213;-80
2022/04/08 20:06:29;;;;;;;8.13;3.85;;;4.90;99.90;;;;;;6709057;89;20333;-80
2022/04/08 20:16:30;;;;;;;7.65;4.37;;;4.90;99.90;;;;;;6703276;89;20223;-80
2022/04/08 20:26:32;;;;;;;6.32;3.60;;;4.80;99.90;;;;;;6700408;89;20731;-81
2022/04/08 20:36:33;;;;;;;6.70;3.87;;;5.00;99.90;;;;;;6727875;88;20314;-81
2022/04/08 20:46:34;;;;;;;7.40;3.83;;;4.80;99.90;;;;;;6732393;88;20172;-80
2022/04/08 20:56:34;;;;;;;7.85;3.90;;;5.00;99.90;;;;;;6736910;88;20239;-79
2022/04/08 21:06:37;;;;;;;8.30;4.65;;;4.90;99.90;;;;;;6735452;88;20221;-80
2022/04/08 21:16:38;;;;;;;9.40;4.43;;;5.10;99.90;;;;;;6733086;88;20652;-80
2022/04/08 21:26:39;;;;;;;8.18;4.53;;;5.00;99.90;;;;;;6736109;88;20698;-79
2022/04/08 21:36:40;;;;;;;8.43;4.40;;;4.90;99.90;;;;;;6734241;88;20304;-79
2022/04/08 21:46:40;;;;;;;8.02;4.90;;;5.10;99.90;;;;;;6733548;88;20669;-80
2022/04/08 21:56:41;;;;;;;11.82;4.90;;;5.00;99.90;;;;;;6731196;88;20193;-82
2022/04/08 22:06:42;;;;;;;9.27;4.55;;;5.00;99.90;;;;;;6730555;88;20190;-80
2022/04/08 22:16:42;;;;;;;10.27;3.80;;;4.90;99.90;;;;;;6737340;88;20209;-81
2022/04/08 22:26:43;;;;;;;8.73;2.90;;;5.10;99.90;;;;;;6741557;88;20506;-81
2022/04/08 22:36:43;;;;;;;6.72;2.30;;;5.30;99.90;;;;;;6737145;88;20315;-80
2022/04/08 22:46:44;;;;;;;7.47;2.40;;;5.40;99.90;;;;;;6731451;88;20321;-80
2022/04/08 22:56:45;;;;;;;11.50;1.80;;;5.30;99.90;;;;;;6732337;88;20258;-82
2022/04/08 23:06:45;;;;;;;9.52;1.95;;;5.20;99.90;;;;;;6731850;88;20203;-82
2022/04/08 23:16:46;;;;;;;6.60;1.62;;;5.10;99.90;;;;;;6732616;88;20672;-81
2022/04/08 23:26:47;;;;;;;4.22;1.30;;;4.90;99.90;;;;;;6731629;88;20654;-81
2022/04/08 23:36:48;;;;;;;7.35;1.80;;;4.90;99.90;;;;;;6731608;88;20215;-80
2022/04/08 23:46:50;;;;;;;8.25;1.80;;;4.80;99.90;;;;;;6729517;88;20218;-81
2022/04/08 23:56:50;;;;;;;6.80;1.55;;;4.70;99.90;;;;;;6730633;88;20177;-80
